Time;durP1;ratioP1;P1;durP2;ratioP2;P2;SDS_P1;SDS_P2;PMS_P1;PMS_P2;Temp;Humidity;BMP_temperature;BMP_pressure;BME280_temperature;BME280_humidity;BME280_pressure;Samples;Min_cycle;Max_cycle;Signal;HPM_P1;HPM_P2
2022/10/23 00:00:57;;;;;;;2.80;2.43;;;;;;;11.32;100.00;101313.53;4976340;28;20154;-82
2022/10/23 00:03:22;;;;;;;2.70;2.13;;;;;;;11.32;99.60;101313.53;4977330;28;20396;-82
2022/10/23 00:05:47;;;;;;;2.30;2.10;;;;;;;11.31;99.80;101316.16;4977027;28;20027;-82
2022/10/23 00:08:13;;;;;;;2.20;2.00;;;;;;;11.31;99.83;101313.56;4976178;28;20046;-81
2022/10/23 00:10:41;;;;;;;2.53;2.20;;;;;;;11.31;100.00;101305.78;4976970;28;20038;-82
2022/10/23 00:13:07;;;;;;;3.38;2.20;;;;;;;11.30;100.00;101309.25;4976614;28;20086;-82
2022/10/23 00:15:34;;;;;;;2.30;2.10;;;;;;;11.30;100.00;101312.72;4976410;28;20169;-82
2022/10/23 00:17:59;;;;;;;2.20;2.00;;;;;;;11.30;100.00;101302.31;4976954;28;20031;-82
2022/10/23 00:20:25;;;;;;;1.90;1.80;;;;;;;11.31;100.00;101303.16;4976945;28;20395;-81
2022/10/23 00:22:50;;;;;;;2.27;1.97;;;;;;;11.31;99.97;101304.03;4975214;28;20122;-82
2022/10/23 00:25:17;;;;;;;2.27;2.00;;;;;;;11.32;100.00;101310.94;4976267;28;20027;-82
2022/10/23 00:27:42;;;;;;;1.80;1.70;;;;;;;11.31;99.98;101311.84;4977059;28;20030;-82
2022/10/23 00:30:08;;;;;;;2.17;1.90;;;;;;;11.33;99.98;101306.63;4975862;28;20031;-82
2022/10/23 00:32:33;;;;;;;2.37;1.90;;;;;;;11.33;99.81;101309.22;4975091;28;20404;-82
2022/10/23 00:34:58;;;;;;;2.23;1.80;;;;;;;11.34;99.76;101314.38;4976501;28;20101;-82
2022/10/23 00:37:24;;;;;;;3.10;1.80;;;;;;;11.34;99.77;101313.53;4975596;28;20055;-82
2022/10/23 00:39:49;;;;;;;1.90;1.80;;;;;;;11.36;100.00;101307.44;4976278;28;20023;-81
2022/10/23 00:42:19;;;;;;;1.70;1.60;;;;;;;11.35;100.00;101302.28;4976511;28;20030;-81
2022/10/23 00:44:44;;;;;;;1.77;1.42;;;;;;;11.34;100.00;101300.53;4976099;28;20026;-82
2022/10/23 00:47:11;;;;;;;1.70;1.60;;;;;;;11.32;100.00;101295.34;4976211;28;20027;-82
2022/10/23 00:49:37;;;;;;;2.50;1.83;;;;;;;11.32;100.00;101294.50;4976089;28;20030;-82
2022/10/23 00:52:05;;;;;;;1.87;1.60;;;;;;;11.30;100.00;101294.53;4975060;28;20468;-82
2022/10/23 00:54:36;;;;;;;1.70;1.60;;;;;;;11.31;100.00;101292.78;4975898;28;20031;-82
2022/10/23 00:57:04;;;;;;;1.40;1.30;;;;;;;11.31;100.00;101300.56;4975024;28;20043;-81
2022/10/23 00:59:30;;;;;;;1.65;1.55;;;;;;;11.29;100.00;101305.78;4976157;28;20101;-82
2022/10/23 01:01:57;;;;;;;2.20;2.00;;;;;;;11.31;100.00;101304.03;4975792;28;20022;-82
2022/10/23 01:04:23;;;;;;;2.60;2.10;;;;;;;11.33;100.00;101299.66;4975632;28;20034;-82
2022/10/23 01:07:17;;;;;;;2.15;1.95;;;;;;;11.35;100.00;101292.72;4976024;28;20463;-82
2022/10/23 01:09:59;;;;;;;2.65;1.83;;;;;;;11.35;100.00;101287.53;4976294;28;20027;-81
2022/10/23 01:12:36;;;;;;;2.00;1.90;;;;;;;11.37;100.00;101297.91;4975169;28;20078;-82
2022/10/23 01:15:33;;;;;;;2.13;1.92;;;;;;;11.36;100.00;101299.66;4975814;28;20077;-82
2022/10/23 01:18:03;;;;;;;2.28;2.00;;;;;;;11.35;100.00;101290.13;4973838;28;20415;-81
2022/10/23 01:20:40;;;;;;;2.92;2.00;;;;;;;11.36;100.00;101288.41;4975721;28;20035;-81
2022/10/23 01:23:34;;;;;;;1.70;1.60;;;;;;;11.36;100.00;101278.00;4975534;28;20110;-82
2022/10/23 01:26:14;;;;;;;2.00;1.80;;;;;;;11.33;100.00;101284.06;4974674;28;20034;-81
2022/10/23 01:29:01;;;;;;;1.63;1.52;;;;;;;11.31;100.00;101279.78;4975616;28;20388;-82
2022/10/23 01:31:52;;;;;;;1.23;1.23;;;;;;;11.28;100.00;101281.53;4975603;28;20046;-82
2022/10/23 01:34:27;;;;;;;2.30;1.90;;;;;;;11.26;100.00;101280.69;4974793;28;20057;-81
2022/10/23 01:36:54;;;;;;;2.08;1.90;;;;;;;11.23;100.00;101266.88;4975012;28;20023;-81
2022/10/23 01:39:27;;;;;;;1.70;1.60;;;;;;;11.22;100.00;101271.22;4974809;28;20038;-81
2022/10/23 01:41:59;;;;;;;3.15;1.98;;;;;;;11.22;100.00;101268.63;4975412;28;20069;-81
2022/10/23 01:44:40;;;;;;;2.15;1.92;;;;;;;11.23;100.00;101272.06;4974792;28;20034;-82
2022/10/23 01:47:08;;;;;;;2.03;1.90;;;;;;;11.22;100.00;101259.94;4974278;28;20038;-81
2022/10/23 01:49:38;;;;;;;1.90;1.77;;;;;;;11.19;100.00;101250.47;4975278;28;20023;-82
2022/10/23 01:52:07;;;;;;;1.95;1.73;;;;;;;11.16;100.00;101245.28;4974887;28;20424;-81
2022/10/23 01:54:37;;;;;;;2.13;1.80;;;;;;;11.14;100.00;101252.28;4974055;28;20078;-82
2022/10/23 01:57:07;;;;;;;2.00;1.80;;;;;;;11.11;100.00;101247.94;4974825;28;20411;-81
2022/10/23 01:59:37;;;;;;;1.55;1.45;;;;;;;11.07;100.00;101241.09;4975018;28;20023;-81
2022/10/23 02:02:05;;;;;;;1.80;1.70;;;;;;;11.05;100.00;101244.56;4974038;28;20494;-82
2022/10/23 02:04:38;;;;;;;2.00;1.80;;;;;;;11.02;100.00;101248.06;4975045;28;20082;-81
2022/10/23 02:07:04;;;;;;;2.85;1.80;;;;;;;11.00;100.00;101246.34;4974603;28;20027;-81
2022/10/23 02:09:30;;;;;;;2.20;2.00;;;;;;;10.97;100.00;101250.69;4974437;28;20507;-82
2022/10/23 02:12:17;;;;;;;2.60;1.73;;;;;;;10.97;100.00;101244.66;4974483;28;20035;-81
2022/10/23 02:14:42;;;;;;;;;;;;;;;10.96;100.00;101246.38;4974411;28;20117;-81
2022/10/23 02:17:30;;;;;;;2.20;2.00;;;;;;;10.96;100.00;101243.78;4974534;28;20362;-81
2022/10/23 02:20:02;;;;;;;2.75;1.90;;;;;;;10.96;100.00;101240.34;4974130;28;20054;-81
2022/10/23 02:22:34;;;;;;;2.10;1.90;;;;;;;10.98;100.00;101238.56;4974092;28;20023;-81
2022/10/23 02:25:18;;;;;;;1.90;1.80;;;;;;;10.99;100.00;101240.28;4974513;28;20030;-81
2022/10/23 02:27:51;;;;;;;3.05;1.80;;;;;;;10.99;100.00;101235.09;4974531;28;20031;-82
2022/10/23 02:30:18;;;;;;;2.05;1.85;;;;;;;10.98;100.00;101235.97;4973615;28;20058;-81
2022/10/23 02:32:47;;;;;;;1.80;1.70;;;;;;;10.99;100.00;101234.25;4974739;28;20031;-82
2022/10/23 02:35:15;;;;;;;2.05;1.88;;;;;;;10.97;100.00;101232.53;4973948;28;20109;-81
2022/10/23 02:37:40;;;;;;;2.55;1.90;;;;;;;10.96;100.00;101225.59;4974087;28;20055;-81
2022/10/23 02:40:07;;;;;;;3.27;1.70;;;;;;;10.98;100.00;101220.38;4974103;28;20034;-81
2022/10/23 02:42:39;;;;;;;1.90;1.70;;;;;;;10.99;100.00;101208.28;4973357;28;20031;-81
2022/10/23 02:45:16;;;;;;;2.47;2.03;;;;;;;11.00;100.00;101205.66;4973945;28;20030;-81
2022/10/23 02:47:56;;;;;;;2.83;2.20;;;;;;;11.01;100.00;101191.78;4974298;28;20035;-81
2022/10/23 02:50:38;;;;;;;2.20;2.00;;;;;;;11.00;100.00;101179.69;4973412;28;20077;-81
2022/10/23 02:53:34;;;;;;;2.25;2.00;;;;;;;11.02;100.00;101174.47;4973431;28;20121;-81
2022/10/23 02:56:07;;;;;;;2.20;2.00;;;;;;;11.05;100.00;101177.03;4972828;28;20022;-82
2022/10/23 02:58:55;;;;;;;2.35;1.98;;;;;;;11.08;100.00;101162.28;4973563;28;20431;-81
2022/10/23 03:01:26;;;;;;;1.95;1.75;;;;;;;11.12;100.00;101163.94;4974128;28;20106;-81
2022/10/23 03:03:55;;;;;;;3.60;2.67;;;;;;;11.17;100.00;101161.28;4973851;28;20035;-81
2022/10/23 03:06:22;;;;;;;2.85;2.40;;;;;;;11.20;100.00;101157.81;4974028;28;20094;-82
2022/10/23 03:08:52;;;;;;;4.25;2.40;;;;;;;11.22;100.00;101153.44;4973882;28;20479;-82
2022/10/23 03:11:18;;;;;;;2.30;2.10;;;;;;;11.23;100.00;101152.56;4973469;28;20050;-81
2022/10/23 03:13:43;;;;;;;2.10;1.90;;;;;;;11.23;100.00;101144.75;4973946;28;20077;-81
2022/10/23 03:16:08;;;;;;;2.40;1.80;;;;;;;11.25;100.00;101151.69;4973658;28;20134;-81
2022/10/23 03:18:34;;;;;;;2.97;1.97;;;;;;;11.25;100.00;101146.47;4973479;28;20027;-81
2022/10/23 03:20:59;;;;;;;1.90;1.80;;;;;;;11.29;100.00;101139.50;4973826;28;20416;-81
2022/10/23 03:23:25;;;;;;;2.70;1.90;;;;;;;11.31;100.00;101147.25;4973656;28;20031;-81
2022/10/23 03:25:51;;;;;;;2.17;2.00;;;;;;;11.31;100.00;101136.88;4972996;28;20118;-81
2022/10/23 03:28:16;;;;;;;2.33;1.90;;;;;;;11.33;100.00;101132.53;4973904;28;20476;-81
2022/10/23 03:30:41;;;;;;;2.30;2.00;;;;;;;11.31;100.00;101129.06;4973762;28;20023;-81
2022/10/23 03:33:07;;;;;;;2.10;1.90;;;;;;;11.31;100.00;101129.94;4972800;28;20471;-81
2022/10/23 03:35:32;;;;;;;1.83;1.73;;;;;;;11.32;100.00;101128.19;4974037;28;20027;-82
2022/10/23 03:37:57;;;;;;;2.03;1.83;;;;;;;11.32;100.00;101121.25;4973147;28;20044;-81
2022/10/23 03:40:22;;;;;;;2.57;1.90;;;;;;;11.33;100.00;101116.94;4973067;28;20035;-81
2022/10/23 03:42:48;;;;;;;2.00;1.80;;;;;;;11.35;100.00;101125.56;4973801;28;20369;-81
2022/10/23 03:45:13;;;;;;;3.40;2.37;;;;;;;11.36;100.00;101114.28;4973619;28;20027;-81
2022/10/23 03:47:40;;;;;;;2.80;2.00;;;;;;;11.35;100.00;101113.41;4973364;28;20158;-81
2022/10/23 03:50:07;;;;;;;3.42;2.53;;;;;;;11.35;100.00;101116.00;4973307;28;20210;-82
2022/10/23 03:52:32;;;;;;;2.92;2.63;;;;;;;11.35;100.00;101109.97;4973745;28;20480;-81
2022/10/23 03:54:58;;;;;;;3.03;2.57;;;;;;;11.35;100.00;101112.56;4972090;28;20114;-81
2022/10/23 03:57:23;;;;;;;3.03;2.40;;;;;;;11.34;100.00;101100.47;4973752;28;20039;-82
2022/10/23 03:59:48;;;;;;;2.60;2.03;;;;;;;11.36;100.00;101102.16;4972666;28;20499;-81
2022/10/23 04:02:14;;;;;;;2.87;2.17;;;;;;;11.36;100.00;101101.31;4973650;28;20026;-81
2022/10/23 04:04:39;;;;;;;3.53;2.50;;;;;;;11.37;100.00;101095.22;4973652;28;20069;-81
2022/10/23 04:07:04;;;;;;;4.50;2.90;;;;;;;11.40;100.00;101097.75;4973448;28;20026;-81
2022/10/23 04:09:29;;;;;;;3.20;2.50;;;;;;;11.39;100.00;101083.03;4976710;28;20026;-81
2022/10/23 04:11:55;;;;;;;5.27;2.87;;;;;;;11.40;100.00;101075.25;4976835;28;20094;-82
2022/10/23 04:14:21;;;;;;;3.35;2.60;;;;;;;11.42;100.00;101075.22;4975939;28;20023;-82
2022/10/23 04:16:46;;;;;;;4.17;2.30;;;;;;;11.42;100.00;101067.41;4976284;28;20025;-82
2022/10/23 04:19:11;;;;;;;4.03;2.53;;;;;;;11.42;100.00;101072.63;4976877;28;20030;-81
2022/10/23 04:21:37;;;;;;;4.83;2.63;;;;;;;11.44;100.00;101068.25;4976410;28;20475;-82
2022/10/23 04:24:02;;;;;;;3.00;2.50;;;;;;;11.43;100.00;101066.53;4976419;28;20433;-81
2022/10/23 04:26:27;;;;;;;2.70;2.40;;;;;;;11.44;100.00;101070.84;4976389;28;20101;-81
2022/10/23 04:28:53;;;;;;;3.00;2.30;;;;;;;11.46;100.00;101068.22;4975887;28;20054;-82
2022/10/23 04:31:18;;;;;;;3.27;2.20;;;;;;;11.44;100.00;101079.50;4976639;28;20495;-82
2022/10/23 04:33:43;;;;;;;2.30;2.10;;;;;;;11.45;100.00;101080.38;4976824;28;20384;-81
2022/10/23 04:36:09;;;;;;;2.37;2.10;;;;;;;11.47;100.00;101073.41;4975522;28;20037;-81
2022/10/23 04:38:34;;;;;;;2.60;2.17;;;;;;;11.48;100.00;101067.34;4976457;28;20046;-81
2022/10/23 04:40:59;;;;;;;2.40;2.20;;;;;;;11.49;100.00;101066.44;4976281;28;20023;-81
2022/10/23 04:43:25;;;;;;;2.47;2.07;;;;;;;11.49;100.00;101065.59;4975334;28;20038;-81
2022/10/23 04:45:50;;;;;;;2.20;1.83;;;;;;;11.49;100.00;101063.81;4976102;28;20035;-81
2022/10/23 04:48:15;;;;;;;2.53;2.00;;;;;;;11.48;100.00;101059.53;4976414;28;20034;-83
2022/10/23 04:50:41;;;;;;;2.13;1.90;;;;;;;11.47;100.00;101060.41;4975616;28;20364;-82
2022/10/23 04:53:08;;;;;;;4.20;2.20;;;;;;;11.48;100.00;101056.94;4975879;28;20031;-81
2022/10/23 04:55:33;;;;;;;4.43;2.42;;;;;;;11.51;100.00;101058.63;4976416;28;20030;-81
2022/10/23 04:57:58;;;;;;;3.43;2.73;;;;;;;11.51;100.00;101050.81;4975084;28;20106;-81
2022/10/23 05:00:23;;;;;;;3.43;2.50;;;;;;;11.52;100.00;101047.34;4976035;28;20027;-81
2022/10/23 05:02:49;;;;;;;3.27;2.20;;;;;;;11.50;100.00;101049.94;4975921;28;20442;-81
2022/10/23 05:05:14;;;;;;;2.40;2.03;;;;;;;11.50;100.00;101052.56;4975013;28;20023;-81
2022/10/23 05:07:39;;;;;;;2.53;2.00;;;;;;;11.50;100.00;101047.34;4976194;28;20069;-81
2022/10/23 05:10:05;;;;;;;2.23;1.90;;;;;;;11.49;100.00;101048.22;4974772;28;20041;-82
2022/10/23 05:12:31;;;;;;;2.30;2.10;;;;;;;11.48;100.00;101036.16;4975799;28;20045;-82
2022/10/23 05:14:56;;;;;;;3.07;2.00;;;;;;;11.49;100.00;101043.03;4975225;28;20468;-81
2022/10/23 05:17:37;;;;;;;1.93;1.80;;;;;;;11.49;100.00;101044.78;4975361;28;20026;-81
2022/10/23 05:20:06;;;;;;;2.83;2.20;;;;;;;11.48;100.00;101040.47;4974443;28;20114;-81
2022/10/23 05:22:36;;;;;;;3.35;2.10;;;;;;;11.49;100.00;101035.25;4976058;28;20081;-81
2022/10/23 05:25:03;;;;;;;2.17;1.90;;;;;;;11.50;100.00;101030.91;4974282;28;20022;-82
2022/10/23 05:27:28;;;;;;;2.97;1.90;;;;;;;11.50;100.00;101028.31;4975721;28;20057;-81
2022/10/23 05:29:53;;;;;;;2.17;1.90;;;;;;;11.50;100.00;101031.75;4975403;28;20015;-82
2022/10/23 05:32:20;;;;;;;2.03;1.80;;;;;;;11.51;100.00;101027.44;4974805;28;20038;-81
2022/10/23 05:34:45;;;;;;;2.17;1.95;;;;;;;11.52;100.00;101032.59;4975605;28;20034;-82
2022/10/23 05:37:13;;;;;;;2.17;1.97;;;;;;;11.51;100.00;101030.03;4974730;28;20668;-82
2022/10/23 05:39:38;;;;;;;1.63;1.52;;;;;;;11.52;100.00;101026.56;4974592;28;20459;-81
2022/10/23 05:42:04;;;;;;;1.87;1.70;;;;;;;11.52;100.00;101027.41;4975120;28;20037;-81
2022/10/23 05:44:29;;;;;;;2.43;1.93;;;;;;;11.53;100.00;101021.31;4975538;28;20070;-81
2022/10/23 05:46:54;;;;;;;2.37;1.70;;;;;;;11.55;100.00;101021.28;4974247;28;20491;-81
2022/10/23 05:49:20;;;;;;;1.77;1.67;;;;;;;11.55;100.00;101027.34;4975065;28;20027;-82
2022/10/23 05:51:45;;;;;;;2.00;1.80;;;;;;;11.54;100.00;101019.59;4975418;28;20117;-81
2022/10/23 05:54:10;;;;;;;2.23;1.93;;;;;;;11.55;100.00;101011.75;4974120;28;20026;-81
2022/10/23 05:56:40;;;;;;;2.03;1.87;;;;;;;11.54;100.00;101012.66;4974860;28;20023;-81
2022/10/23 05:59:06;;;;;;;4.03;2.35;;;;;;;11.55;100.00;101016.97;4974782;28;20479;-81
2022/10/23 06:01:31;;;;;;;2.50;2.28;;;;;;;11.56;100.00;101005.69;4974570;28;20026;-82
2022/10/23 06:03:58;;;;;;;2.40;2.13;;;;;;;11.58;100.00;101005.66;4974428;28;20026;-81
2022/10/23 06:06:24;;;;;;;2.97;2.10;;;;;;;11.57;100.00;101003.94;4974207;28;20033;-81
2022/10/23 06:08:49;;;;;;;2.23;2.03;;;;;;;11.57;100.00;101002.19;4974724;28;20030;-81
2022/10/23 06:11:14;;;;;;;4.13;2.10;;;;;;;11.56;100.00;101003.09;4974778;28;20531;-82
2022/10/23 06:13:44;;;;;;;2.27;1.90;;;;;;;11.56;100.00;100997.00;4974158;28;20035;-81
2022/10/23 06:16:12;;;;;;;2.80;2.03;;;;;;;11.56;100.00;100997.88;4974596;28;20026;-88
2022/10/23 06:18:37;;;;;;;2.30;1.90;;;;;;;11.56;100.00;100992.69;4974975;28;20380;-83
2022/10/23 06:21:03;;;;;;;1.83;1.70;;;;;;;11.57;100.00;100994.41;4973732;28;20058;-83
2022/10/23 06:23:34;;;;;;;2.90;1.90;;;;;;;11.59;100.00;100996.97;4974210;28;20027;-83
2022/10/23 06:25:59;;;;;;;2.30;1.90;;;;;;;11.59;100.00;100992.66;4974188;28;20472;-83
2022/10/23 06:28:25;;;;;;;2.83;2.20;;;;;;;11.60;100.00;100988.28;4973902;28;20110;-82
2022/10/23 06:30:50;;;;;;;2.50;2.00;;;;;;;11.62;100.00;100983.94;4974408;28;20027;-82
2022/10/23 06:33:15;;;;;;;2.63;2.20;;;;;;;11.64;100.00;100989.09;4972530;28;20059;-82
2022/10/23 06:35:41;;;;;;;4.40;2.27;;;;;;;11.66;100.00;100980.38;4960617;28;20030;-82
2022/10/23 06:38:07;;;;;;;4.23;2.50;;;;;;;11.67;100.00;100979.47;4964537;28;20082;-82
2022/10/23 06:40:33;;;;;;;3.00;2.40;;;;;;;11.70;100.00;100978.59;4962970;28;20524;-82
2022/10/23 06:42:58;;;;;;;4.37;2.40;;;;;;;11.71;100.00;100980.28;4962939;28;20126;-82
2022/10/23 06:45:23;;;;;;;3.93;2.30;;;;;;;11.72;100.00;100969.00;4962587;28;20023;-82
2022/10/23 06:47:50;;;;;;;2.43;2.10;;;;;;;11.74;100.00;100967.25;4970878;28;20030;-82
2022/10/23 06:50:15;;;;;;;3.58;2.30;;;;;;;11.75;100.00;100958.56;4973496;28;20406;-82
2022/10/23 06:52:40;;;;;;;3.60;2.33;;;;;;;11.76;100.00;100955.06;4973779;28;20033;-82
2022/10/23 06:55:06;;;;;;;2.50;2.30;;;;;;;11.77;100.00;100959.38;4973600;28;20038;-82
2022/10/23 06:57:32;;;;;;;3.17;2.43;;;;;;;11.80;100.00;100959.34;4973675;28;20011;-84
2022/10/23 06:59:57;;;;;;;2.77;2.40;;;;;;;11.83;100.00;100958.41;4973633;28;20035;-80
2022/10/23 07:02:22;;;;;;;4.47;2.77;;;;;;;11.86;100.00;100955.78;4974168;28;20045;-79
2022/10/23 07:04:48;;;;;;;3.17;2.40;;;;;;;11.88;100.00;100956.56;4973586;28;20024;-81
2022/10/23 07:07:13;;;;;;;4.77;2.50;;;;;;;11.89;100.00;100959.16;4973521;28;20446;-79
2022/10/23 07:09:38;;;;;;;2.93;2.30;;;;;;;11.93;100.00;100959.97;4973189;28;20029;-80
2022/10/23 07:12:04;;;;;;;4.10;2.30;;;;;;;11.95;100.00;100958.19;4973511;28;20391;-80
2022/10/23 07:14:31;;;;;;;2.90;2.20;;;;;;;11.97;100.00;100964.22;4974174;28;20027;-80
2022/10/23 07:16:56;;;;;;;1.90;1.80;;;;;;;11.97;100.00;100959.03;4972740;28;20034;-81
2022/10/23 07:19:22;;;;;;;2.00;1.90;;;;;;;12.01;100.00;100958.09;4974035;28;20031;-80
2022/10/23 07:21:47;;;;;;;4.73;1.90;;;;;;;12.04;100.00;100960.63;4973887;28;20035;-80
2022/10/23 07:24:12;;;;;;;2.80;2.10;;;;;;;12.06;100.00;100955.41;4973197;28;20035;-79
2022/10/23 07:26:37;;;;;;;2.50;2.30;;;;;;;12.09;100.00;100949.28;4973921;28;20037;-78
2022/10/23 07:29:03;;;;;;;3.53;2.60;;;;;;;12.14;100.00;100945.72;4973484;28;20046;-78
2022/10/23 07:31:28;;;;;;;4.50;2.87;;;;;;;12.15;100.00;100944.84;4972900;28;20066;-78
2022/10/23 07:33:54;;;;;;;3.47;2.30;;;;;;;12.16;100.00;100940.47;4973638;28;20069;-78
2022/10/23 07:36:19;;;;;;;2.77;2.30;;;;;;;12.18;100.00;100936.94;4973508;28;20494;-78
2022/10/23 07:38:45;;;;;;;2.40;2.10;;;;;;;12.20;100.00;100942.97;4972715;28;20078;-79
2022/10/23 07:41:10;;;;;;;2.10;1.90;;;;;;;12.23;100.00;100938.59;4973650;28;20030;-79
2022/10/23 07:43:36;;;;;;;2.20;2.00;;;;;;;12.24;100.00;100930.75;4976948;28;20030;-78
2022/10/23 07:46:01;;;;;;;2.23;1.70;;;;;;;12.28;100.00;100936.75;4976796;28;20026;-78
2022/10/23 07:48:27;;;;;;;4.67;2.53;;;;;;;12.32;100.00;100930.59;4977451;28;20127;-78
2022/10/23 07:50:56;;;;;;;4.67;2.60;;;;;;;12.37;100.00;100931.38;4977208;28;20062;-78
2022/10/23 07:53:23;;;;;;;3.67;2.70;;;;;;;12.40;100.00;100922.63;4975979;28;20069;-78
2022/10/23 07:55:57;;;;;;;5.55;3.00;;;;;;;12.43;100.00;100928.63;4977102;28;20539;-78
2022/10/23 07:58:23;;;;;;;5.57;3.13;;;;;;;12.48;100.00;100926.78;4977376;28;20034;-78
2022/10/23 08:00:54;;;;;;;3.92;2.80;;;;;;;12.51;100.00;100929.31;4976416;28;20057;-78
2022/10/23 08:03:19;;;;;;;4.07;2.80;;;;;;;12.54;100.00;100920.59;4976978;28;20506;-78
2022/10/23 08:05:45;;;;;;;5.23;3.10;;;;;;;12.57;100.00;100920.50;4977074;28;20035;-80
2022/10/23 08:08:10;;;;;;;7.70;3.07;;;;;;;12.63;100.00;100920.38;4976344;28;20417;-80
2022/10/23 08:10:36;;;;;;;4.50;2.80;;;;;;;12.67;100.00;100918.56;4976980;28;20174;-80
2022/10/23 08:13:01;;;;;;;4.37;2.90;;;;;;;12.76;100.00;100920.09;4976090;28;20070;-80
2022/10/23 08:15:26;;;;;;;5.13;2.90;;;;;;;12.77;100.00;100916.59;4977012;28;20038;-80
2022/10/23 08:17:52;;;;;;;4.00;2.80;;;;;;;12.79;100.00;100914.81;4976593;28;20086;-80
2022/10/23 08:20:18;;;;;;;3.45;2.40;;;;;;;12.83;100.00;100917.28;4975035;28;20043;-80
2022/10/23 08:22:43;;;;;;;3.67;2.60;;;;;;;12.88;100.00;100914.59;4976901;28;20034;-80
2022/10/23 08:25:08;;;;;;;2.67;2.40;;;;;;;12.91;100.00;100917.13;4976717;28;20647;-80
2022/10/23 08:27:34;;;;;;;4.73;3.03;;;;;;;12.97;100.00;100910.91;4976134;28;20027;-80
2022/10/23 08:29:59;;;;;;;3.40;2.77;;;;;;;13.02;100.00;100910.78;4976151;28;20030;-80
2022/10/23 08:32:28;;;;;;;3.67;2.60;;;;;;;13.06;100.00;100912.44;4976654;28;20059;-80
2022/10/23 08:34:53;;;;;;;4.03;2.47;;;;;;;13.12;100.00;100917.47;4975542;28;20486;-80
2022/10/23 08:37:18;;;;;;;2.83;2.40;;;;;;;13.14;100.00;100905.28;4976102;28;20088;-82
2022/10/23 08:39:44;;;;;;;3.87;2.33;;;;;;;13.18;100.00;100900.84;4976405;28;20050;-79
2022/10/23 08:42:19;;;;;;;2.37;2.17;;;;;;;13.21;100.00;100901.66;4975211;28;20042;-80
2022/10/23 08:44:58;;;;;;;3.87;2.77;;;;;;;13.22;100.00;100897.28;4976188;28;20015;-80
2022/10/23 08:47:38;;;;;;;4.30;2.90;;;;;;;13.24;100.00;100882.47;4975800;28;20035;-80
2022/10/23 08:50:33;;;;;;;2.83;2.53;;;;;;;13.25;100.00;100885.00;4975395;28;20101;-80
2022/10/23 08:53:19;;;;;;;4.18;2.40;;;;;;;13.25;100.00;100890.22;4974785;28;20039;-80
2022/10/23 08:55:48;;;;;;;4.40;2.90;;;;;;;13.27;100.00;100887.59;4975362;28;20043;-80
2022/10/23 08:58:28;;;;;;;5.88;3.17;;;;;;;13.32;100.00;100880.50;4975984;28;20289;-80
2022/10/23 09:00:53;;;;;;;3.40;2.50;;;;;;;13.34;100.00;100883.94;4975927;28;20023;-80
2022/10/23 09:03:20;;;;;;;3.37;2.30;;;;;;;13.40;100.00;100888.16;4969034;28;20034;-80
2022/10/23 09:05:51;;;;;;;;;;;;;;;13.42;100.00;100878.56;4963771;28;20089;-80
2022/10/23 09:08:44;;;;;;;4.88;2.83;;;;;;;13.46;100.00;100877.56;4968461;28;19914;-80
2022/10/23 09:11:18;;;;;;;4.65;3.00;;;;;;;13.51;100.00;100880.06;4961096;28;20479;-80
2022/10/23 09:13:57;;;;;;;5.80;2.88;;;;;;;13.51;100.00;100865.25;4956801;28;20073;-80
2022/10/23 09:16:37;;;;;;;3.53;2.40;;;;;;;13.53;100.00;100854.78;4955750;28;20094;-80
2022/10/23 09:19:17;;;;;;;3.17;2.50;;;;;;;13.58;100.00;100868.56;4956366;28;20030;-80
2022/10/23 09:21:51;;;;;;;3.33;2.47;;;;;;;13.62;100.00;100864.97;4956430;28;20380;-80
2022/10/23 09:24:20;;;;;;;3.60;2.63;;;;;;;13.68;100.00;100856.97;4955544;28;20041;-80
2022/10/23 09:26:48;;;;;;;3.05;2.40;;;;;;;13.74;100.00;100851.56;4956414;28;20027;-80
2022/10/23 09:29:27;;;;;;;3.47;2.58;;;;;;;13.78;100.00;100843.66;4955870;28;20111;-80
2022/10/23 09:31:55;;;;;;;3.20;2.60;;;;;;;13.82;100.00;100837.47;4961466;28;20031;-81
2022/10/23 09:34:26;;;;;;;3.05;2.30;;;;;;;13.85;100.00;100845.19;4975114;28;20499;-81
2022/10/23 09:36:56;;;;;;;2.85;2.30;;;;;;;13.87;100.00;100840.78;4975284;28;20022;-81
2022/10/23 09:39:28;;;;;;;7.40;3.35;;;;;;;13.89;100.00;100829.44;4974137;28;20049;-80
2022/10/23 09:41:53;;;;;;;6.80;3.03;;;;;;;13.94;100.00;100821.47;4975362;28;20030;-81
2022/10/23 09:44:27;;;;;;;5.37;3.07;;;;;;;13.97;100.00;100813.53;4974334;28;20435;-80
2022/10/23 09:47:07;;;;;;;3.28;2.38;;;;;;;14.01;100.00;100811.69;4975102;28;20398;-81
2022/10/23 09:49:34;;;;;;;2.85;2.50;;;;;;;14.03;100.00;100805.53;4975510;28;20506;-82
2022/10/23 09:52:03;;;;;;;3.20;2.28;;;;;;;14.08;100.00;100809.72;4974023;28;20114;-82
2022/10/23 09:54:32;;;;;;;3.50;2.30;;;;;;;14.10;100.00;100810.53;4974884;28;20472;-82
2022/10/23 09:57:04;;;;;;;3.28;2.45;;;;;;;14.12;100.00;100808.75;4974638;28;20027;-82
2022/10/23 09:59:31;;;;;;;4.75;2.75;;;;;;;14.14;100.00;100805.19;4974302;28;20050;-82
2022/10/23 10:01:59;;;;;;;4.28;2.50;;;;;;;14.17;100.00;100793.81;4974086;28;20475;-81
2022/10/23 10:04:37;;;;;;;4.03;2.72;;;;;;;14.20;100.00;100791.09;4973651;28;20495;-81
2022/10/23 10:07:05;;;;;;;4.28;2.75;;;;;;;14.26;100.00;100785.69;4973809;28;20093;-81
2022/10/23 10:09:31;;;;;;;2.80;2.40;;;;;;;14.31;100.00;100777.72;4974992;28;20034;-81
2022/10/23 10:12:18;;;;;;;2.60;2.40;;;;;;;14.34;100.00;100773.25;4974600;28;20030;-82
2022/10/23 10:15:05;;;;;;;2.35;2.15;;;;;;;14.38;100.00;100767.94;4973959;28;20038;-81
2022/10/23 10:17:40;;;;;;;2.40;2.00;;;;;;;14.41;100.00;100766.06;4974968;28;20023;-82
2022/10/23 10:20:28;;;;;;;2.78;2.30;;;;;;;14.44;99.89;100762.50;4973737;28;20034;-81
2022/10/23 10:23:18;;;;;;;5.95;3.00;;;;;;;14.53;99.09;100751.75;4974103;28;20035;-81
2022/10/23 10:25:49;;;;;;;3.95;2.67;;;;;;;14.51;99.09;100743.13;4974769;28;20122;-81
2022/10/23 10:28:35;;;;;;;4.10;2.78;;;;;;;14.52;99.17;100737.84;4973882;28;20081;-81
2022/10/23 10:31:18;;;;;;;4.60;2.35;;;;;;;14.56;99.44;100742.97;4973850;28;20085;-81
2022/10/23 10:34:01;;;;;;;2.67;1.90;;;;;;;14.61;99.49;100749.75;4973698;28;20044;-81
2022/10/23 10:36:41;;;;;;;3.30;1.95;;;;;;;14.66;99.56;100750.44;4974615;28;20026;-81
2022/10/23 10:39:20;;;;;;;3.40;2.30;;;;;;;14.69;98.65;100746.91;4973950;28;20082;-81
2022/10/23 10:41:58;;;;;;;4.35;2.30;;;;;;;14.76;98.62;100740.56;4972885;28;20038;-82
2022/10/23 10:44:45;;;;;;;2.80;2.20;;;;;;;14.82;98.79;100747.34;4974318;28;20398;-81
2022/10/23 10:47:13;;;;;;;2.97;2.20;;;;;;;14.90;98.43;100740.06;4974216;28;20110;-82
2022/10/23 10:49:48;;;;;;;5.50;2.75;;;;;;;14.97;98.10;100733.72;4973364;28;20058;-81
2022/10/23 10:52:22;;;;;;;3.50;2.78;;;;;;;15.04;97.09;100726.50;4973890;28;20054;-81
2022/10/23 10:55:10;;;;;;;5.80;2.97;;;;;;;15.14;96.89;100720.03;4973747;28;20031;-81
2022/10/23 10:57:40;;;;;;;5.20;2.70;;;;;;;15.21;97.04;100714.59;4974053;28;20119;-81
2022/10/23 11:00:17;;;;;;;5.07;3.03;;;;;;;15.34;96.03;100707.16;4954720;28;20081;-82
2022/10/23 11:02:57;;;;;;;3.90;2.80;;;;;;;15.42;96.83;100716.41;4953963;28;20400;-81
2022/10/23 11:05:33;;;;;;;4.50;2.60;;;;;;;15.51;95.67;100698.66;4954730;28;20039;-81
2022/10/23 11:07:58;;;;;;;4.80;2.60;;;;;;;15.62;96.61;100698.25;4954515;28;20063;-81
2022/10/23 11:10:25;;;;;;;3.90;2.50;;;;;;;15.72;95.95;100715.31;4954190;28;20073;-81
2022/10/23 11:12:51;;;;;;;;;;;;;;;15.80;95.73;100707.16;4954642;28;20062;-82
2022/10/23 11:15:39;;;;;;;4.15;2.60;;;;;;;15.85;95.35;100710.47;4958164;28;20279;-82
2022/10/23 11:18:15;;;;;;;2.85;2.40;;;;;;;15.88;95.64;100695.50;4975155;28;20113;-82
2022/10/23 11:20:49;;;;;;;6.25;2.80;;;;;;;15.93;94.60;100686.63;4978178;28;20023;-81
2022/10/23 11:23:36;;;;;;;4.85;2.80;;;;;;;16.04;93.95;100684.41;4976912;28;20027;-82
2022/10/23 11:26:28;;;;;;;5.45;3.10;;;;;;;16.06;93.57;100686.03;4977332;28;20026;-81
2022/10/23 11:29:20;;;;;;;4.80;2.70;;;;;;;16.14;93.92;100692.75;4967838;28;20077;-81
2022/10/23 11:32:05;;;;;;;4.70;2.70;;;;;;;16.23;94.33;100679.28;4976928;28;20106;-81